»·PEaware :: N433YE KSBP-KBFL

N433YE :: KSBP-KBFL

FLIGHT INFORMATION

Flight Status: Arrived
Operator: Privately registered:
United States
More flights under this callsign
Pilot: Jeremy H. (10741)
Aircraft: Unknown
(DA62)
More flights by this aircraft type
Origin: KSBP San Luis Co Regl
United States
Destination: KBFL Meadows
United States
More flights between these airports :: More routes between these airports
Route: MQO EHF
File this flight plan on PilotEdge
Remarks:
Altitude:
(Current/Filed)
7,000ft
Speed:
(Current/Filed)
181kts
Departed: 05-Aug-18 09:32 AM
Arrived: 05-Aug-18 10:10 AM
Distance/Time
Traveled:
79nm/0:38
Distance/Time
To Go:
Arrived

Flight Plot

Page will automatically refresh every two minutes.


Map Options




Map Legend


Flown Route
Filed Route
Departure Airport
Arrival Airport
Navaid (VOR, NDB)
Fix

Horizontal Profiles

Position Reports

Time Latitude Longitude Heading Altitude Ground
Speed
05-Aug-18 09:13 35.239470 -120.642316 247 182ft 0kts
05-Aug-18 09:14 35.239470 -120.642316 247 182ft 0kts
05-Aug-18 09:15 35.239470 -120.642316 247 182ft 0kts
05-Aug-18 09:16 35.239470 -120.642316 247 182ft 0kts
05-Aug-18 09:17 35.239470 -120.642316 247 182ft 0kts
05-Aug-18 09:18 35.239470 -120.642316 247 182ft 0kts
05-Aug-18 09:19 35.239470 -120.642316 247 182ft 0kts
05-Aug-18 09:20 35.239470 -120.642316 247 182ft 0kts
05-Aug-18 09:21 35.239470 -120.642316 247 182ft 0kts
05-Aug-18 09:22 35.239470 -120.642316 247 182ft 0kts
05-Aug-18 09:23 35.239470 -120.642316 247 182ft 0kts
05-Aug-18 09:24 35.239470 -120.642316 247 182ft 0kts
05-Aug-18 09:25 35.239470 -120.642316 247 182ft 0kts
05-Aug-18 09:26 35.239470 -120.642316 247 182ft 0kts
05-Aug-18 09:27 35.238120 -120.640650 125 188ft 17kts
05-Aug-18 09:28 35.235869 -120.636504 124 204ft 10kts
05-Aug-18 09:29 35.234104 -120.633986 225 211ft 0kts
05-Aug-18 09:30 35.234104 -120.633986 225 211ft 0kts
05-Aug-18 09:31 35.234104 -120.633986 225 211ft 0kts
05-Aug-18 09:32 35.233793 -120.634781 306 208ft 6kts
05-Aug-18 09:33 35.245381 -120.654979 304 1178ft 81kts
05-Aug-18 09:34 35.252761 -120.679357 272 2682ft 81kts
05-Aug-18 09:35 35.252571 -120.706888 272 4155ft 82kts
05-Aug-18 09:36 35.252368 -120.734712 271 5610ft 83kts
05-Aug-18 09:37 35.252650 -120.763139 290 6960ft 94kts
05-Aug-18 09:38 35.280485 -120.755054 84 6979ft 186kts
05-Aug-18 09:39 35.265987 -120.693662 87 6974ft 194kts
05-Aug-18 09:40 35.270619 -120.638747 79 6973ft 194kts
05-Aug-18 09:41 35.281032 -120.562726 78 6973ft 194kts
05-Aug-18 09:42 35.290397 -120.497685 77 6974ft 194kts
05-Aug-18 09:43 35.298246 -120.443302 77 6974ft 194kts
05-Aug-18 09:44 35.307620 -120.378171 77 6975ft 193kts
05-Aug-18 09:45 35.318424 -120.302805 78 6973ft 193kts
05-Aug-18 09:46 35.326127 -120.248856 78 6973ft 193kts
05-Aug-18 09:47 35.335310 -120.184272 78 6975ft 192kts
05-Aug-18 09:48 35.345936 -120.109248 78 6977ft 191kts
05-Aug-18 09:49 35.353454 -120.055969 77 6979ft 190kts
05-Aug-18 09:50 35.362390 -119.992412 77 6982ft 188kts
05-Aug-18 09:51 35.371210 -119.929458 78 6989ft 188kts
05-Aug-18 09:52 35.380036 -119.866186 78 6994ft 187kts
05-Aug-18 09:53 35.388782 -119.803228 78 6998ft 187kts
05-Aug-18 09:54 35.397492 -119.740276 78 7000ft 187kts
05-Aug-18 09:55 35.406207 -119.677040 78 7000ft 187kts
05-Aug-18 09:56 35.414826 -119.614420 78 6519ft 181kts
05-Aug-18 09:57 35.422993 -119.554828 78 5519ft 177kts
05-Aug-18 09:58 35.430944 -119.496422 78 4516ft 167kts
05-Aug-18 09:59 35.438098 -119.443882 78 3992ft 136kts
05-Aug-18 10:00 35.444713 -119.395097 79 4001ft 152kts
05-Aug-18 10:01 35.451611 -119.343896 79 4000ft 153kts
05-Aug-18 10:02 35.458579 -119.292053 79 3999ft 154kts
05-Aug-18 10:03 35.457566 -119.243032 89 3532ft 145kts
05-Aug-18 10:04 35.455618 -119.191514 94 2515ft 156kts
05-Aug-18 10:05 35.459123 -119.139076 76 1798ft 126kts
05-Aug-18 10:06 35.462161 -119.104538 92 1239ft 105kts
05-Aug-18 10:07 35.455356 -119.066643 114 1098ft 134kts
05-Aug-18 10:08 35.430622 -119.030809 138 1189ft 109kts
05-Aug-18 10:09 35.413322 -119.030375 276 944ft 88kts
05-Aug-18 10:10 35.431013 -119.052802 314 563ft 89kts
05-Aug-18 10:11 35.440092 -119.062673 2 497ft 0kts
05-Aug-18 10:12 35.440092 -119.062673 2 497ft 0kts
05-Aug-18 10:13 35.440092 -119.062673 2 497ft 0kts
05-Aug-18 10:14 35.440092 -119.062673 2 497ft 0kts
05-Aug-18 10:15 35.438734 -119.059859 136 497ft 25kts
05-Aug-18 10:16 35.438259 -119.056159 306 500ft 0kts

Navigation Log

Ident Type
Flight plan parsing failed, navigation log unavailable